createdAt,value
2019-05-12T00:02:04.108Z,128.93
2019-05-12T00:04:35.455Z,124.55
2019-05-12T00:07:08.698Z,143.87
2019-05-12T00:09:39.597Z,174.62
2019-05-12T00:12:10.910Z,191.07
2019-05-12T00:14:42.435Z,134.67
2019-05-12T00:17:15.010Z,162.35
2019-05-12T00:19:47.922Z,170.17
2019-05-12T00:22:20.883Z,153.42
2019-05-12T00:24:52.173Z,157.37
2019-05-12T00:27:24.110Z,129.57
2019-05-12T00:29:57.731Z,131.15
2019-05-12T00:32:29.034Z,119.35
2019-05-12T00:35:00.401Z,124.55
2019-05-12T00:37:31.610Z,112.92
2019-05-12T00:40:03.001Z,110.65
2019-05-12T00:42:34.315Z,139.45
2019-05-12T00:45:08.093Z,131.65
2019-05-12T00:47:39.685Z,103.53
2019-05-12T00:50:11.102Z,96.25
2019-05-12T00:52:42.369Z,93.07
2019-05-12T00:55:13.624Z,93.78
2019-05-12T00:57:44.890Z,86.42
2019-05-12T01:00:17.873Z,82.15
2019-05-12T01:02:49.389Z,84.28
2019-05-12T01:05:20.631Z,84.72
2019-05-12T01:07:51.992Z,268.48
2019-05-12T01:10:23.205Z,425.45
2019-05-12T01:12:57.861Z,431.25
2019-05-12T01:15:30.288Z,149.72
2019-05-12T01:18:01.498Z,155.90
2019-05-12T01:20:32.789Z,127.85
2019-05-12T01:23:04.038Z,202.70
2019-05-12T01:25:35.325Z,284.90
2019-05-12T01:28:08.099Z,335.17
2019-05-12T01:30:42.731Z,680.05
2019-05-12T01:33:15.425Z,255.35
2019-05-12T01:35:48.473Z,191.28
2019-05-12T01:38:20.978Z,223.40
2019-05-12T01:40:53.347Z,179.47
2019-05-12T01:43:24.835Z,208.10
2019-05-12T01:45:58.855Z,257.65
2019-05-12T01:48:29.671Z,308.95
2019-05-12T01:51:01.019Z,364.88
2019-05-12T01:53:34.332Z,310.38
2019-05-12T01:56:22.616Z,230.03
2019-05-12T01:59:01.735Z,222.33
2019-05-12T02:01:33.130Z,289.95
2019-05-12T02:04:04.549Z,229.75
2019-05-12T02:06:38.392Z,295.10
2019-05-12T02:09:10.483Z,246.68
2019-05-12T02:11:42.160Z,253.37
2019-05-12T02:14:13.507Z,287.45
2019-05-12T02:16:44.906Z,271.70
2019-05-12T02:19:17.825Z,235.90
2019-05-12T02:21:49.361Z,288.27
2019-05-12T02:24:26.639Z,306.00
2019-05-12T02:26:53.658Z,236.05
2019-05-12T02:29:25.021Z,240.03
2019-05-12T02:31:58.935Z,230.05
2019-05-12T02:34:29.157Z,216.88
2019-05-12T02:37:00.763Z,203.77
2019-05-12T02:39:34.995Z,226.42
2019-05-12T02:42:05.293Z,241.08
2019-05-12T02:44:37.572Z,223.75
2019-05-12T02:47:09.947Z,216.17
2019-05-12T02:49:41.253Z,207.72
2019-05-12T02:52:15.396Z,183.95
2019-05-12T02:54:55.236Z,193.28
2019-05-12T02:57:18.515Z,355.75
2019-05-12T02:59:49.929Z,236.80
2019-05-12T03:02:24.196Z,203.37
2019-05-12T03:04:55.012Z,429.25
2019-05-12T03:07:27.677Z,255.52
2019-05-12T03:09:59.134Z,220.48
2019-05-12T03:12:34.243Z,209.98
2019-05-12T03:15:05.656Z,196.28
2019-05-12T03:17:37.908Z,172.17
2019-05-12T03:20:11.004Z,197.02
2019-05-12T03:22:44.766Z,147.10
2019-05-12T03:25:24.307Z,182.22
2019-05-12T03:27:48.601Z,168.35
2019-05-12T03:30:20.105Z,194.28
2019-05-12T03:32:57.182Z,185.97
2019-05-12T03:35:32.549Z,154.82
2019-05-12T03:37:57.609Z,160.50
2019-05-12T03:40:29.266Z,122.45
2019-05-12T03:43:05.030Z,148.75
2019-05-12T03:45:36.136Z,130.70
2019-05-12T03:48:07.789Z,94.40
2019-05-12T03:50:39.082Z,96.30
2019-05-12T03:53:11.166Z,95.20
2019-05-12T03:55:47.057Z,83.27
2019-05-12T03:58:17.582Z,76.47
2019-05-12T04:00:48.910Z,133.90
2019-05-12T04:03:20.204Z,60.08
2019-05-12T04:05:51.530Z,51.18
2019-05-12T04:08:24.854Z,50.60
2019-05-12T04:10:56.030Z,68.57
2019-05-12T04:13:27.389Z,51.23
2019-05-12T04:15:59.757Z,44.08
2019-05-12T04:18:31.268Z,60.95
2019-05-12T04:21:05.585Z,42.98
2019-05-12T04:23:36.001Z,38.98
2019-05-12T04:26:12.158Z,65.70
2019-05-12T04:28:40.243Z,41.37
2019-05-12T04:31:15.245Z,46.80
2019-05-12T04:33:45.600Z,66.95
2019-05-12T04:36:16.857Z,35.88
2019-05-12T04:38:48.121Z,44.80
2019-05-12T04:41:20.279Z,41.18
2019-05-12T04:43:54.915Z,29.52
2019-05-12T04:46:26.918Z,95.65
2019-05-12T04:48:58.325Z,33.90
2019-05-12T04:51:29.394Z,40.48
2019-05-12T04:54:00.791Z,41.98
2019-05-12T04:56:35.414Z,30.77
2019-05-12T04:59:05.296Z,34.75
2019-05-12T05:01:37.032Z,91.67
2019-05-12T05:04:08.311Z,45.30
2019-05-12T05:06:39.544Z,37.88
2019-05-12T05:09:10.805Z,32.40
2019-05-12T05:11:44.789Z,43.28
2019-05-12T05:14:14.899Z,57.53
2019-05-12T05:16:47.566Z,30.08
2019-05-12T05:19:18.918Z,32.90
2019-05-12T05:21:50.165Z,33.15
2019-05-12T05:24:23.429Z,33.45
2019-05-12T05:26:54.336Z,27.37
2019-05-12T05:29:25.561Z,23.60
2019-05-12T05:31:57.725Z,22.65
2019-05-12T05:34:34.134Z,26.85
2019-05-12T05:37:05.869Z,25.25
2019-05-12T05:39:47.601Z,26.10
2019-05-12T05:42:10.163Z,27.22
2019-05-12T05:44:43.368Z,30.92
2019-05-12T05:47:14.234Z,26.93
2019-05-12T05:49:45.482Z,27.22
2019-05-12T05:52:16.783Z,26.90
2019-05-12T05:54:48.070Z,30.12
2019-05-12T05:57:19.979Z,28.15
2019-05-12T05:59:53.778Z,28.73
2019-05-12T06:02:31.864Z,26.55
2019-05-12T06:04:58.265Z,32.05
2019-05-12T06:07:34.967Z,31.12
2019-05-12T06:10:04.098Z,31.80
2019-05-12T06:12:35.195Z,30.17
2019-05-12T06:15:09.018Z,29.40
2019-05-12T06:17:40.343Z,30.85
2019-05-12T06:20:13.463Z,27.48
2019-05-12T06:22:48.687Z,25.25
2019-05-12T06:25:18.103Z,33.13
2019-05-12T06:27:51.183Z,22.32
2019-05-12T06:30:24.151Z,26.82
2019-05-12T06:32:55.111Z,25.85
2019-05-12T06:35:30.917Z,27.02
2019-05-12T06:38:01.748Z,22.67
2019-05-12T06:40:40.438Z,22.75
2019-05-12T06:43:05.642Z,28.00
2019-05-12T06:45:42.653Z,20.37
2019-05-12T06:48:14.031Z,19.90
2019-05-12T06:50:49.492Z,27.95
2019-05-12T06:53:33.180Z,27.58
2019-05-12T06:56:04.466Z,20.62
2019-05-12T06:58:45.620Z,20.43
2019-05-12T07:01:19.489Z,21.10
2019-05-12T07:04:00.521Z,31.57
2019-05-12T07:06:34.813Z,20.80
2019-05-12T07:09:26.669Z,20.25
2019-05-12T07:12:02.703Z,19.67
2019-05-12T07:14:27.918Z,18.40
2019-05-12T07:17:02.879Z,25.05
2019-05-12T07:19:34.462Z,17.85
2019-05-12T07:22:18.864Z,16.75
2019-05-12T07:24:50.200Z,15.00
2019-05-12T07:27:36.011Z,17.57
2019-05-12T07:30:09.133Z,11.78
2019-05-12T07:32:43.371Z,21.48
2019-05-12T07:35:17.874Z,13.25
2019-05-12T07:37:53.443Z,13.78
2019-05-12T07:40:30.036Z,13.83
2019-05-12T07:43:10.089Z,21.25
2019-05-12T07:48:13.946Z,13.35
2019-05-12T07:50:45.208Z,15.13
2019-05-12T07:53:26.693Z,15.25
2019-05-12T07:55:59.441Z,12.10
2019-05-12T07:58:33.318Z,11.53
2019-05-12T08:01:08.022Z,11.53
2019-05-12T08:03:40.893Z,9.15
2019-05-12T08:06:14.181Z,13.28
2019-05-12T08:08:50.928Z,11.75
2019-05-12T08:11:28.877Z,10.35
2019-05-12T08:14:13.793Z,13.32
2019-05-12T08:16:47.187Z,10.53
2019-05-12T08:19:35.777Z,10.18
2019-05-12T08:22:18.972Z,14.58
2019-05-12T08:24:53.675Z,11.25
2019-05-12T08:27:34.089Z,12.13
2019-05-12T08:30:11.056Z,11.20
2019-05-12T08:32:46.984Z,15.88
2019-05-12T08:38:00.441Z,11.00
2019-05-12T08:40:46.461Z,15.65
2019-05-12T08:43:16.241Z,10.93
2019-05-12T08:45:53.607Z,11.73
2019-05-12T08:48:34.311Z,10.65
2019-05-12T08:51:20.115Z,13.58
2019-05-12T08:54:02.461Z,10.68
2019-05-12T08:56:27.477Z,16.07
2019-05-12T08:59:00.994Z,27.55
2019-05-12T09:01:37.158Z,15.80
2019-05-12T09:04:18.601Z,14.18
2019-05-12T09:07:04.698Z,16.62
2019-05-12T09:09:40.072Z,22.55
2019-05-12T09:12:16.693Z,22.35
2019-05-12T09:15:13.602Z,15.10
2019-05-12T09:17:52.478Z,15.80
2019-05-12T09:20:24.526Z,17.35
2019-05-12T09:23:02.013Z,15.15
2019-05-12T09:25:44.336Z,20.60
2019-05-12T09:28:25.439Z,14.40
2019-05-12T09:30:59.871Z,14.95
2019-05-12T09:33:34.590Z,13.25
2019-05-12T09:36:19.843Z,13.32
2019-05-12T09:38:46.683Z,14.20
2019-05-12T09:41:18.904Z,12.07
2019-05-12T09:43:50.872Z,15.55
2019-05-12T09:46:23.290Z,15.72
2019-05-12T09:48:55.177Z,12.78
2019-05-12T09:51:35.201Z,12.43
2019-05-12T09:54:00.429Z,8.63
2019-05-12T09:56:34.063Z,11.10
2019-05-12T09:59:17.483Z,13.68
2019-05-12T10:01:43.103Z,10.63
2019-05-12T10:04:16.315Z,12.40
2019-05-12T10:06:48.106Z,11.80
2019-05-12T10:09:20.000Z,21.97
2019-05-12T10:12:00.419Z,9.48
2019-05-12T10:14:24.614Z,8.93
2019-05-12T10:16:56.271Z,11.20
2019-05-12T10:19:27.807Z,10.63
2019-05-12T10:21:59.643Z,12.88
2019-05-12T10:24:32.750Z,12.53
2019-05-12T10:27:09.485Z,15.50
2019-05-12T10:29:40.751Z,11.05
2019-05-12T10:32:13.643Z,9.90
2019-05-12T10:34:47.428Z,10.40
2019-05-12T10:37:19.233Z,15.60
2019-05-12T10:39:55.691Z,16.67
2019-05-12T10:42:27.069Z,10.40
2019-05-12T10:44:59.213Z,9.93
2019-05-12T10:47:30.528Z,10.08
2019-05-12T10:50:09.551Z,8.08
2019-05-12T10:52:40.962Z,7.33
2019-05-12T10:55:13.431Z,9.23
2019-05-12T10:57:47.250Z,9.28
2019-05-12T11:00:25.079Z,10.85
2019-05-12T11:02:53.536Z,10.95
2019-05-12T11:05:26.607Z,10.50
2019-05-12T11:08:00.200Z,7.78
2019-05-12T11:10:32.214Z,6.62
2019-05-12T11:13:08.209Z,10.45
2019-05-12T11:15:39.423Z,7.95
2019-05-12T11:18:11.176Z,8.13
2019-05-12T11:20:48.459Z,14.18
2019-05-12T11:23:20.378Z,9.78
2019-05-12T11:25:55.400Z,11.95
2019-05-12T11:28:33.472Z,9.58
2019-05-12T11:31:07.685Z,8.05
2019-05-12T11:33:39.695Z,11.38
2019-05-12T11:36:13.614Z,9.75
2019-05-12T11:38:48.560Z,8.90
2019-05-12T11:41:20.519Z,9.53
2019-05-12T11:43:55.369Z,6.97
2019-05-12T11:46:27.504Z,7.85
2019-05-12T11:49:04.584Z,8.73
2019-05-12T11:51:38.562Z,7.95
2019-05-12T11:54:10.904Z,10.95
2019-05-12T11:56:46.584Z,13.53
2019-05-12T11:59:15.967Z,12.65
2019-05-12T12:01:51.548Z,8.08
2019-05-12T12:04:25.514Z,7.25
2019-05-12T12:06:57.620Z,12.98
2019-05-12T12:09:28.920Z,11.38
2019-05-12T12:12:05.560Z,10.18
2019-05-12T12:14:34.496Z,15.15
2019-05-12T12:17:05.985Z,13.20
2019-05-12T12:19:43.978Z,11.08
2019-05-12T12:22:14.551Z,10.20
2019-05-12T12:24:45.397Z,9.20
2019-05-12T12:27:18.400Z,9.63
2019-05-12T12:29:49.677Z,12.43
2019-05-12T12:32:23.162Z,10.58
2019-05-12T12:34:54.460Z,8.05
2019-05-12T12:37:25.827Z,8.43
2019-05-12T12:39:57.042Z,9.75
2019-05-12T12:42:30.451Z,10.23
2019-05-12T12:45:04.265Z,9.45
2019-05-12T12:47:43.609Z,9.70
2019-05-12T12:50:10.653Z,8.85
2019-05-12T12:52:46.875Z,10.30
2019-05-12T12:55:16.459Z,8.98
2019-05-12T12:57:50.689Z,7.15
2019-05-12T13:00:29.730Z,7.30
2019-05-12T13:02:53.612Z,15.32
2019-05-12T13:05:25.222Z,11.05
2019-05-12T13:07:58.168Z,10.28
2019-05-12T13:10:33.577Z,16.35
2019-05-12T13:13:04.596Z,10.00
2019-05-12T13:15:36.051Z,12.28
2019-05-12T13:18:09.048Z,10.48
2019-05-12T13:20:40.370Z,12.65
2019-05-12T13:23:14.367Z,11.83
2019-05-12T13:25:50.536Z,14.95
2019-05-12T13:28:22.703Z,17.27
2019-05-12T13:31:07.642Z,15.13
2019-05-12T13:33:28.271Z,10.13
2019-05-12T13:35:59.613Z,15.35
2019-05-12T13:38:38.282Z,10.80
2019-05-12T13:41:04.387Z,11.05
2019-05-12T13:43:41.232Z,13.72
2019-05-12T13:46:13.159Z,14.43
2019-05-12T13:48:49.883Z,13.62
2019-05-12T13:51:20.503Z,14.73
2019-05-12T13:53:52.198Z,13.78
2019-05-12T13:56:25.788Z,13.20
2019-05-12T13:58:57.272Z,9.08
2019-05-12T14:01:31.924Z,9.58
2019-05-12T14:04:04.041Z,6.45
2019-05-12T14:06:37.732Z,6.40
2019-05-12T14:09:09.955Z,8.28
2019-05-12T14:11:43.759Z,6.78
2019-05-12T14:14:15.775Z,6.75
2019-05-12T14:16:57.399Z,5.72
2019-05-12T14:19:23.326Z,4.33
2019-05-12T14:21:56.713Z,6.37
2019-05-12T14:24:33.320Z,7.00
2019-05-12T14:27:04.040Z,7.10
2019-05-12T14:29:37.933Z,6.75
2019-05-12T14:32:12.259Z,5.85
2019-05-12T14:34:51.130Z,24.57
2019-05-12T14:37:23.812Z,8.18
2019-05-12T14:39:56.551Z,10.13
2019-05-12T14:42:34.850Z,7.87
2019-05-12T14:45:04.512Z,9.30
2019-05-12T14:47:38.906Z,7.72
2019-05-12T14:50:09.583Z,10.90
2019-05-12T14:52:41.063Z,9.10
2019-05-12T14:55:17.453Z,14.83
2019-05-12T14:57:56.520Z,14.93
2019-05-12T15:00:28.522Z,14.80
2019-05-12T15:03:05.460Z,15.15
2019-05-12T15:05:35.046Z,12.70
2019-05-12T15:08:08.828Z,21.45
2019-05-12T15:10:40.661Z,17.05
2019-05-12T15:13:13.946Z,14.73
2019-05-12T15:15:50.060Z,17.10
2019-05-12T15:18:22.581Z,14.73
2019-05-12T15:20:56.746Z,14.55
2019-05-12T15:23:35.074Z,16.02
2019-05-12T15:26:09.515Z,15.00
2019-05-12T15:28:38.353Z,17.15
2019-05-12T15:31:11.286Z,17.37
2019-05-12T15:33:44.025Z,14.33
2019-05-12T15:36:17.867Z,13.25
2019-05-12T15:38:54.482Z,13.83
2019-05-12T15:41:23.800Z,16.25
2019-05-12T15:43:55.890Z,23.35
2019-05-12T15:46:33.008Z,12.53
2019-05-12T15:49:08.619Z,16.90
2019-05-12T15:51:50.967Z,14.30
2019-05-12T15:54:15.587Z,129.47
2019-05-12T15:56:49.434Z,17.77
2019-05-12T15:59:20.787Z,13.88
2019-05-12T16:01:57.289Z,14.23
2019-05-12T16:04:26.941Z,11.95
2019-05-12T16:06:58.370Z,14.13
2019-05-12T16:09:30.922Z,17.32
2019-05-12T16:12:09.976Z,21.17
2019-05-12T16:14:41.319Z,17.95
2019-05-12T16:17:16.790Z,26.50
2019-05-12T16:19:47.858Z,21.00
2019-05-12T16:22:19.886Z,17.00
2019-05-12T16:24:53.196Z,13.43
2019-05-12T16:27:33.106Z,15.25
2019-05-12T16:30:04.545Z,14.63
2019-05-12T16:32:42.631Z,17.07
2019-05-12T16:35:09.556Z,17.70
2019-05-12T16:37:41.004Z,22.07
2019-05-12T16:40:13.672Z,31.85
2019-05-12T16:42:51.110Z,20.60
2019-05-12T16:45:20.179Z,26.23
2019-05-12T16:47:53.616Z,20.35
2019-05-12T16:50:28.087Z,19.10
2019-05-12T16:52:59.946Z,25.55
2019-05-12T16:55:44.116Z,21.95
2019-05-12T16:58:04.381Z,21.90
2019-05-12T17:00:39.575Z,24.23
2019-05-12T17:03:11.459Z,31.52
2019-05-12T17:05:44.885Z,26.90
2019-05-12T17:08:19.525Z,28.12
2019-05-12T17:11:00.982Z,32.17
2019-05-12T17:13:25.409Z,30.25
2019-05-12T17:16:00.135Z,37.08
2019-05-12T17:18:34.075Z,34.80
2019-05-12T17:21:06.108Z,33.35
2019-05-12T17:23:37.934Z,33.05
2019-05-12T17:26:09.239Z,34.50
2019-05-12T17:28:40.646Z,40.70
2019-05-12T17:31:14.980Z,39.45
2019-05-12T17:33:46.571Z,38.65
2019-05-12T17:36:24.056Z,41.02
2019-05-12T17:38:57.885Z,40.25
2019-05-12T17:41:31.617Z,45.48
2019-05-12T17:44:06.647Z,48.58
2019-05-12T17:46:39.740Z,49.30
2019-05-12T17:49:17.690Z,44.80
2019-05-12T17:51:44.751Z,47.03
2019-05-12T17:54:21.685Z,46.25
2019-05-12T17:56:51.177Z,41.88
2019-05-12T17:59:29.205Z,44.38
2019-05-12T18:01:58.821Z,41.65
2019-05-12T18:04:30.706Z,49.73
2019-05-12T18:07:12.549Z,40.73
2019-05-12T18:09:36.525Z,41.88
2019-05-12T18:12:08.007Z,43.05
2019-05-12T18:14:49.982Z,46.13
2019-05-12T18:17:14.406Z,47.53
2019-05-12T18:19:50.244Z,47.48
2019-05-12T18:22:18.753Z,48.70
2019-05-12T18:24:50.941Z,46.05
2019-05-12T18:27:23.151Z,46.42
2019-05-12T18:29:54.621Z,52.62
2019-05-12T18:32:26.295Z,56.98
2019-05-12T18:34:57.813Z,55.45
2019-05-12T18:37:29.199Z,52.10
2019-05-12T18:40:04.102Z,51.40
2019-05-12T18:42:35.967Z,48.30
2019-05-12T18:45:15.105Z,53.35
2019-05-12T18:47:43.748Z,61.53
2019-05-12T18:50:14.744Z,63.28
2019-05-12T18:52:46.463Z,62.13
2019-05-12T18:55:19.659Z,68.85
2019-05-12T18:57:54.542Z,63.98
2019-05-12T19:00:26.623Z,64.10
2019-05-12T19:02:59.662Z,61.05
2019-05-12T19:05:32.713Z,68.45
2019-05-12T19:08:04.262Z,108.00
2019-05-12T19:10:38.587Z,63.38
2019-05-12T19:13:08.912Z,57.85
2019-05-12T19:15:40.369Z,49.70
2019-05-12T19:18:15.559Z,51.37
2019-05-12T19:20:47.863Z,58.98
2019-05-12T19:23:19.843Z,59.80
2019-05-12T19:25:53.998Z,56.20
2019-05-12T19:28:25.772Z,58.60
2019-05-12T19:31:06.074Z,66.05
2019-05-12T19:33:43.863Z,64.92
2019-05-12T19:36:10.327Z,62.00
2019-05-12T19:38:43.838Z,64.25
2019-05-12T19:41:16.308Z,66.85
2019-05-12T19:43:49.598Z,65.20
2019-05-12T19:46:21.153Z,67.75
2019-05-12T19:48:53.994Z,65.45
2019-05-12T19:51:28.335Z,61.30
2019-05-12T19:53:59.432Z,59.13
2019-05-12T19:56:35.788Z,61.95
2019-05-12T19:59:04.983Z,60.63
2019-05-12T20:01:37.346Z,61.70
2019-05-12T20:04:08.732Z,65.22
2019-05-12T20:06:40.332Z,62.93
2019-05-12T20:09:14.294Z,55.92
2019-05-12T20:11:45.776Z,61.15
2019-05-12T20:14:21.357Z,60.45
2019-05-12T20:16:50.263Z,73.67
2019-05-12T20:19:25.339Z,65.52
2019-05-12T20:21:54.403Z,68.37
2019-05-12T20:24:25.667Z,62.50
2019-05-12T20:26:58.512Z,58.13
2019-05-12T20:29:33.243Z,62.70
2019-05-12T20:32:04.674Z,61.73
2019-05-12T20:34:48.100Z,63.38
2019-05-12T20:37:15.234Z,63.23
2019-05-12T20:39:44.416Z,61.15
2019-05-12T20:42:15.129Z,75.57
2019-05-12T20:44:46.437Z,74.37
2019-05-12T20:47:17.952Z,68.37
2019-05-12T20:49:51.025Z,59.40
2019-05-12T20:52:23.778Z,66.50
2019-05-12T20:54:59.615Z,61.48
2019-05-12T20:57:29.635Z,52.53
2019-05-12T21:00:04.837Z,53.78
2019-05-12T21:02:35.113Z,63.52
2019-05-12T21:05:14.824Z,58.98
2019-05-12T21:07:40.671Z,52.27
2019-05-12T21:10:14.420Z,52.05
2019-05-12T21:12:49.940Z,56.10
2019-05-12T21:15:20.668Z,54.53
2019-05-12T21:17:58.536Z,60.00
2019-05-12T21:20:24.367Z,54.25
2019-05-12T21:22:55.943Z,57.53
2019-05-12T21:25:27.116Z,50.60
2019-05-12T21:28:07.501Z,50.28
2019-05-12T21:30:33.862Z,50.98
2019-05-12T21:33:05.406Z,51.33
2019-05-12T21:35:40.685Z,44.50
2019-05-12T21:38:13.313Z,50.35
2019-05-12T21:40:44.175Z,47.00
2019-05-12T21:43:17.289Z,51.92
2019-05-12T21:45:48.622Z,45.52
2019-05-12T21:48:23.583Z,62.30
2019-05-12T21:50:55.406Z,44.88
2019-05-12T21:53:26.166Z,51.98
2019-05-12T21:56:04.017Z,51.68
2019-05-12T21:58:30.683Z,48.60
2019-05-12T22:01:05.101Z,46.15
2019-05-12T22:03:35.066Z,50.45
2019-05-12T22:06:19.020Z,49.03
2019-05-12T22:08:39.752Z,46.98
2019-05-12T22:11:11.677Z,50.12
2019-05-12T22:13:54.911Z,50.67
2019-05-12T22:16:17.640Z,54.90
2019-05-12T22:18:56.060Z,54.20
2019-05-12T22:21:23.873Z,52.15
2019-05-12T22:23:56.339Z,54.50
2019-05-12T22:26:30.740Z,58.35
2019-05-12T22:29:04.182Z,60.20
2019-05-12T22:31:38.647Z,63.95
2019-05-12T22:34:07.888Z,61.15
2019-05-12T22:37:03.921Z,62.67
2019-05-12T22:39:46.087Z,58.92
2019-05-12T22:42:21.513Z,56.37
2019-05-12T22:44:55.298Z,63.45
2019-05-12T22:47:24.264Z,65.45
2019-05-12T22:49:57.096Z,64.17
2019-05-12T22:52:28.655Z,61.92
2019-05-12T22:55:00.123Z,70.00
2019-05-12T22:57:38.234Z,73.80
2019-05-12T23:00:06.604Z,75.75
2019-05-12T23:02:39.740Z,74.65
2019-05-12T23:05:16.810Z,73.28
2019-05-12T23:07:44.036Z,75.47
2019-05-12T23:10:15.331Z,76.28
2019-05-12T23:12:50.216Z,81.55
2019-05-12T23:15:20.137Z,74.65
2019-05-12T23:17:53.191Z,77.20
2019-05-12T23:20:25.270Z,71.47
2019-05-12T23:22:57.628Z,74.65
2019-05-12T23:25:28.921Z,70.08
2019-05-12T23:28:05.289Z,77.55
2019-05-12T23:30:35.483Z,72.00
2019-05-12T23:33:06.604Z,74.47
2019-05-12T23:35:39.725Z,74.07
2019-05-12T23:38:16.749Z,78.55
2019-05-12T23:40:44.462Z,81.28
2019-05-12T23:43:15.793Z,76.07
2019-05-12T23:45:47.189Z,70.15
2019-05-12T23:48:18.300Z,72.30
2019-05-12T23:50:49.602Z,65.40
2019-05-12T23:53:21.038Z,64.32
2019-05-12T23:55:54.165Z,65.55
2019-05-12T23:58:27.469Z,60.35
